Startpagina
METAR-TAF:

METAR-TAF

Vliegvelden :

Vancouver, Brits Columbia, Canada

Vancouver International Airport

breedte: 49-11N, lengte: 123-10W, hoogte: 3 m

Actueel weer

Dit bericht is 33 minuten geleden gemaakt, om 04:00 UTC
Wind 4 kt uit het westnoordwesten
Temperatuur 5°C
Vochtigheid 100%
Druk 1029 hPa
Zicht: 32.2 km
Weinig wolken op 13000 ft
Gebroken wolken op 20000 ft
Gebroken wolken op 23000 ft

METAR: CYVR 140400Z 29004KT 20SM FEW130 BKN200 BKN230 05/05 A3040 RMK AC1CC5CS1 SLP297

Tijdstip: 20:33 (04:33 UTC)

Verwachting

Dit bericht is 1 uur en het 55 minuten geleden gemaakt, om 02:38 UTC
Verwachting geldig van 14 om 03 UTC tot 15 om 06 UTC
Wind 3 kt uit variabele richting
Zicht: 10 km
Gebroken wolken op 24000 ft
Wijzigt naar
van 14 om 19 UTC tot 14 om 21 UTC
Wind 8 kt uit het westnoordwesten

TAF: CYVR 140238Z 1403/1506 VRB03KT P6SM BKN240 BECMG 1419/1421 30008KT RMK NXT FCST BY 140600Z

Waarnemingen en weersverwachtingen van meer dan 4000 vliegvelden (METAR en TAF).

De beschikbare stations zijn de gele en rode punten op de kaart.

Ga met uw muis naar het station om de naam te zien.

Klik dan om waarnemingen en weersverwachtingen te zien.

kaart wijzigen: klik op de groene knoppen met een zwart kruis om in te zoomen, op de groene knop met een streepje om uit te zoomen of op de groene pijlen voor aangrenzende kaarten.


METAR-TAF: